sensor_id;sensor_type;location;lat;lon;timestamp;temperature;humidity
49413;DHT22;35493;50.276;9.372;2023-04-08T00:00:09;6.90;86.60
49413;DHT22;35493;50.276;9.372;2023-04-08T00:02:36;6.80;86.70
49413;DHT22;35493;50.276;9.372;2023-04-08T00:05:03;6.80;86.80
49413;DHT22;35493;50.276;9.372;2023-04-08T00:07:30;6.80;87.00
49413;DHT22;35493;50.276;9.372;2023-04-08T00:09:58;6.80;86.80
49413;DHT22;35493;50.276;9.372;2023-04-08T00:12:24;6.80;86.80
49413;DHT22;35493;50.276;9.372;2023-04-08T00:14:51;6.80;86.90
49413;DHT22;35493;50.276;9.372;2023-04-08T00:17:18;6.70;87.00
49413;DHT22;35493;50.276;9.372;2023-04-08T00:19:45;6.70;87.20
49413;DHT22;35493;50.276;9.372;2023-04-08T00:22:11;6.70;86.90
49413;DHT22;35493;50.276;9.372;2023-04-08T00:24:38;6.70;86.90
49413;DHT22;35493;50.276;9.372;2023-04-08T00:27:07;6.70;87.20
49413;DHT22;35493;50.276;9.372;2023-04-08T00:29:34;6.60;87.20
49413;DHT22;35493;50.276;9.372;2023-04-08T00:32:00;6.60;87.10
49413;DHT22;35493;50.276;9.372;2023-04-08T00:34:28;6.60;87.20
49413;DHT22;35493;50.276;9.372;2023-04-08T00:36:54;6.70;87.10
49413;DHT22;35493;50.276;9.372;2023-04-08T00:39:22;6.70;86.90
49413;DHT22;35493;50.276;9.372;2023-04-08T00:41:49;6.60;87.00
49413;DHT22;35493;50.276;9.372;2023-04-08T00:44:17;6.60;87.10
49413;DHT22;35493;50.276;9.372;2023-04-08T00:46:43;6.70;86.90
49413;DHT22;35493;50.276;9.372;2023-04-08T00:49:10;6.60;87.10
49413;DHT22;35493;50.276;9.372;2023-04-08T00:51:37;6.60;86.90
49413;DHT22;35493;50.276;9.372;2023-04-08T00:54:04;6.60;86.70
49413;DHT22;35493;50.276;9.372;2023-04-08T00:56:31;6.60;86.70
49413;DHT22;35493;50.276;9.372;2023-04-08T00:58:59;6.60;86.80
49413;DHT22;35493;50.276;9.372;2023-04-08T01:01:29;6.70;86.60
49413;DHT22;35493;50.276;9.372;2023-04-08T01:04:01;6.70;86.60
49413;DHT22;35493;50.276;9.372;2023-04-08T01:06:37;6.60;86.30
49413;DHT22;35493;50.276;9.372;2023-04-08T01:09:07;6.60;86.40
49413;DHT22;35493;50.276;9.372;2023-04-08T01:11:34;6.60;86.60
49413;DHT22;35493;50.276;9.372;2023-04-08T01:14:03;6.60;86.70
49413;DHT22;35493;50.276;9.372;2023-04-08T01:16:33;6.60;86.40
49413;DHT22;35493;50.276;9.372;2023-04-08T01:19:00;6.50;86.30
49413;DHT22;35493;50.276;9.372;2023-04-08T01:21:27;6.50;86.50
49413;DHT22;35493;50.276;9.372;2023-04-08T01:23:58;6.40;86.50
49413;DHT22;35493;50.276;9.372;2023-04-08T01:26:27;6.50;86.50
49413;DHT22;35493;50.276;9.372;2023-04-08T01:28:55;6.50;86.40
49413;DHT22;35493;50.276;9.372;2023-04-08T01:31:23;6.40;86.40
49413;DHT22;35493;50.276;9.372;2023-04-08T01:33:50;6.40;86.40
49413;DHT22;35493;50.276;9.372;2023-04-08T01:36:17;6.40;86.20
49413;DHT22;35493;50.276;9.372;2023-04-08T01:38:45;6.30;86.40
49413;DHT22;35493;50.276;9.372;2023-04-08T01:41:14;6.30;86.40
49413;DHT22;35493;50.276;9.372;2023-04-08T01:43:43;6.30;86.50
49413;DHT22;35493;50.276;9.372;2023-04-08T01:46:11;6.30;86.40
49413;DHT22;35493;50.276;9.372;2023-04-08T01:48:39;6.30;86.60
49413;DHT22;35493;50.276;9.372;2023-04-08T01:51:06;6.20;86.80
49413;DHT22;35493;50.276;9.372;2023-04-08T01:53:34;6.20;87.00
49413;DHT22;35493;50.276;9.372;2023-04-08T01:56:03;6.20;86.90
49413;DHT22;35493;50.276;9.372;2023-04-08T01:58:31;6.20;86.80
49413;DHT22;35493;50.276;9.372;2023-04-08T02:01:03;6.20;86.70
49413;DHT22;35493;50.276;9.372;2023-04-08T02:03:30;6.20;86.80
49413;DHT22;35493;50.276;9.372;2023-04-08T02:05:58;6.10;86.90
49413;DHT22;35493;50.276;9.372;2023-04-08T02:08:25;6.20;86.90
49413;DHT22;35493;50.276;9.372;2023-04-08T02:10:52;6.20;86.80
49413;DHT22;35493;50.276;9.372;2023-04-08T02:13:19;6.10;86.60
49413;DHT22;35493;50.276;9.372;2023-04-08T02:15:46;6.10;86.60
49413;DHT22;35493;50.276;9.372;2023-04-08T02:18:19;6.20;86.50
49413;DHT22;35493;50.276;9.372;2023-04-08T02:20:49;6.10;86.40
49413;DHT22;35493;50.276;9.372;2023-04-08T02:23:21;6.10;86.40
49413;DHT22;35493;50.276;9.372;2023-04-08T02:25:54;6.10;86.20
49413;DHT22;35493;50.276;9.372;2023-04-08T02:28:25;6.10;86.30
49413;DHT22;35493;50.276;9.372;2023-04-08T02:30:52;6.10;86.30
49413;DHT22;35493;50.276;9.372;2023-04-08T02:33:21;6.20;86.10
49413;DHT22;35493;50.276;9.372;2023-04-08T02:35:50;6.10;86.20
49413;DHT22;35493;50.276;9.372;2023-04-08T02:38:19;6.00;86.30
49413;DHT22;35493;50.276;9.372;2023-04-08T02:40:47;6.10;86.20
49413;DHT22;35493;50.276;9.372;2023-04-08T02:43:14;6.10;85.90
49413;DHT22;35493;50.276;9.372;2023-04-08T02:45:41;6.10;85.90
49413;DHT22;35493;50.276;9.372;2023-04-08T02:48:08;6.20;85.80
49413;DHT22;35493;50.276;9.372;2023-04-08T02:50:37;6.10;86.00
49413;DHT22;35493;50.276;9.372;2023-04-08T02:53:04;6.00;86.10
49413;DHT22;35493;50.276;9.372;2023-04-08T02:55:32;6.00;85.90
49413;DHT22;35493;50.276;9.372;2023-04-08T02:57:59;6.00;86.00
49413;DHT22;35493;50.276;9.372;2023-04-08T03:00:26;6.00;85.90
49413;DHT22;35493;50.276;9.372;2023-04-08T03:02:52;6.00;85.90
49413;DHT22;35493;50.276;9.372;2023-04-08T03:05:19;5.90;85.90
49413;DHT22;35493;50.276;9.372;2023-04-08T03:07:47;5.90;85.80
49413;DHT22;35493;50.276;9.372;2023-04-08T03:10:14;5.80;86.20
49413;DHT22;35493;50.276;9.372;2023-04-08T03:12:41;5.80;86.40
49413;DHT22;35493;50.276;9.372;2023-04-08T03:15:08;5.80;86.30
49413;DHT22;35493;50.276;9.372;2023-04-08T03:17:34;5.90;86.20
49413;DHT22;35493;50.276;9.372;2023-04-08T03:20:01;5.80;86.20
49413;DHT22;35493;50.276;9.372;2023-04-08T03:22:29;5.80;86.10
49413;DHT22;35493;50.276;9.372;2023-04-08T03:24:57;5.80;86.00
49413;DHT22;35493;50.276;9.372;2023-04-08T03:27:24;5.80;85.80
49413;DHT22;35493;50.276;9.372;2023-04-08T03:29:50;5.80;86.10
49413;DHT22;35493;50.276;9.372;2023-04-08T03:32:18;5.80;86.20
49413;DHT22;35493;50.276;9.372;2023-04-08T03:34:45;5.70;86.30
49413;DHT22;35493;50.276;9.372;2023-04-08T03:37:11;5.70;86.30
49413;DHT22;35493;50.276;9.372;2023-04-08T03:39:38;5.70;86.10
49413;DHT22;35493;50.276;9.372;2023-04-08T03:42:06;5.70;86.30
49413;DHT22;35493;50.276;9.372;2023-04-08T03:44:33;5.70;86.00
49413;DHT22;35493;50.276;9.372;2023-04-08T03:46:59;5.70;86.00
49413;DHT22;35493;50.276;9.372;2023-04-08T03:49:26;5.60;86.30
49413;DHT22;35493;50.276;9.372;2023-04-08T03:51:53;5.60;86.40
49413;DHT22;35493;50.276;9.372;2023-04-08T03:54:20;5.70;86.00
49413;DHT22;35493;50.276;9.372;2023-04-08T03:56:47;5.60;86.10
49413;DHT22;35493;50.276;9.372;2023-04-08T03:59:16;5.60;86.20
49413;DHT22;35493;50.276;9.372;2023-04-08T04:01:42;5.50;86.40
49413;DHT22;35493;50.276;9.372;2023-04-08T04:04:09;5.60;85.90
49413;DHT22;35493;50.276;9.372;2023-04-08T04:06:36;5.60;85.60
49413;DHT22;35493;50.276;9.372;2023-04-08T04:09:03;5.50;85.80
49413;DHT22;35493;50.276;9.372;2023-04-08T04:11:30;5.50;85.80
49413;DHT22;35493;50.276;9.372;2023-04-08T04:13:56;5.60;85.70
49413;DHT22;35493;50.276;9.372;2023-04-08T04:16:24;5.50;85.70
49413;DHT22;35493;50.276;9.372;2023-04-08T04:18:51;5.40;85.90
49413;DHT22;35493;50.276;9.372;2023-04-08T04:21:18;5.50;86.10
49413;DHT22;35493;50.276;9.372;2023-04-08T04:23:45;5.50;86.10
49413;DHT22;35493;50.276;9.372;2023-04-08T04:26:11;5.40;86.00
49413;DHT22;35493;50.276;9.372;2023-04-08T04:28:39;5.40;86.00
49413;DHT22;35493;50.276;9.372;2023-04-08T04:31:06;5.30;86.10
49413;DHT22;35493;50.276;9.372;2023-04-08T04:33:34;5.40;86.00
49413;DHT22;35493;50.276;9.372;2023-04-08T04:36:01;5.40;86.00
49413;DHT22;35493;50.276;9.372;2023-04-08T04:38:27;5.30;86.10
49413;DHT22;35493;50.276;9.372;2023-04-08T04:40:54;5.30;86.10
49413;DHT22;35493;50.276;9.372;2023-04-08T04:43:22;5.30;86.10
49413;DHT22;35493;50.276;9.372;2023-04-08T04:45:49;5.30;86.00
49413;DHT22;35493;50.276;9.372;2023-04-08T04:48:16;5.30;86.00
49413;DHT22;35493;50.276;9.372;2023-04-08T04:50:44;5.30;86.00
49413;DHT22;35493;50.276;9.372;2023-04-08T04:53:11;5.40;85.90
49413;DHT22;35493;50.276;9.372;2023-04-08T04:55:37;5.40;86.00
49413;DHT22;35493;50.276;9.372;2023-04-08T04:58:04;5.30;86.00
49413;DHT22;35493;50.276;9.372;2023-04-08T05:00:31;5.40;86.00
49413;DHT22;35493;50.276;9.372;2023-04-08T05:02:57;5.30;86.00
49413;DHT22;35493;50.276;9.372;2023-04-08T05:05:24;5.30;86.20
49413;DHT22;35493;50.276;9.372;2023-04-08T05:07:52;5.30;86.20
49413;DHT22;35493;50.276;9.372;2023-04-08T05:10:19;5.40;86.10
49413;DHT22;35493;50.276;9.372;2023-04-08T05:12:46;5.40;86.00
49413;DHT22;35493;50.276;9.372;2023-04-08T05:15:13;5.40;86.00
49413;DHT22;35493;50.276;9.372;2023-04-08T05:17:40;5.40;85.90
49413;DHT22;35493;50.276;9.372;2023-04-08T05:20:07;5.40;85.90
49413;DHT22;35493;50.276;9.372;2023-04-08T05:22:34;5.40;86.00
49413;DHT22;35493;50.276;9.372;2023-04-08T05:25:02;5.40;86.00
49413;DHT22;35493;50.276;9.372;2023-04-08T05:27:28;5.40;85.90
49413;DHT22;35493;50.276;9.372;2023-04-08T05:29:55;5.40;86.00
49413;DHT22;35493;50.276;9.372;2023-04-08T05:32:22;5.30;86.20
49413;DHT22;35493;50.276;9.372;2023-04-08T05:34:49;5.20;86.30
49413;DHT22;35493;50.276;9.372;2023-04-08T05:37:16;5.30;86.30
49413;DHT22;35493;50.276;9.372;2023-04-08T05:39:42;5.40;86.30
49413;DHT22;35493;50.276;9.372;2023-04-08T05:42:10;5.40;86.40
49413;DHT22;35493;50.276;9.372;2023-04-08T05:44:38;5.40;86.40
49413;DHT22;35493;50.276;9.372;2023-04-08T05:47:05;5.40;86.30
49413;DHT22;35493;50.276;9.372;2023-04-08T05:49:32;5.40;86.30
49413;DHT22;35493;50.276;9.372;2023-04-08T05:51:59;5.40;86.20
49413;DHT22;35493;50.276;9.372;2023-04-08T05:54:26;5.40;86.20
49413;DHT22;35493;50.276;9.372;2023-04-08T05:56:53;5.40;86.50
49413;DHT22;35493;50.276;9.372;2023-04-08T05:59:21;5.40;86.50
49413;DHT22;35493;50.276;9.372;2023-04-08T06:01:47;5.40;86.50
49413;DHT22;35493;50.276;9.372;2023-04-08T06:04:14;5.40;86.50
49413;DHT22;35493;50.276;9.372;2023-04-08T06:06:42;5.50;86.40
49413;DHT22;35493;50.276;9.372;2023-04-08T06:09:08;5.60;86.40
49413;DHT22;35493;50.276;9.372;2023-04-08T06:11:35;5.60;86.40
49413;DHT22;35493;50.276;9.372;2023-04-08T06:14:02;5.70;86.20
49413;DHT22;35493;50.276;9.372;2023-04-08T06:16:30;5.70;86.30
49413;DHT22;35493;50.276;9.372;2023-04-08T06:18:57;5.70;86.30
49413;DHT22;35493;50.276;9.372;2023-04-08T06:21:23;5.60;86.40
49413;DHT22;35493;50.276;9.372;2023-04-08T06:23:50;5.70;86.40
49413;DHT22;35493;50.276;9.372;2023-04-08T06:26:17;5.70;86.30
49413;DHT22;35493;50.276;9.372;2023-04-08T06:28:44;5.70;86.00
49413;DHT22;35493;50.276;9.372;2023-04-08T06:31:11;5.70;86.00
49413;DHT22;35493;50.276;9.372;2023-04-08T06:33:39;5.70;86.30
49413;DHT22;35493;50.276;9.372;2023-04-08T06:36:06;5.60;86.40
49413;DHT22;35493;50.276;9.372;2023-04-08T06:38:33;5.60;86.30
49413;DHT22;35493;50.276;9.372;2023-04-08T06:41:02;5.70;86.20
49413;DHT22;35493;50.276;9.372;2023-04-08T06:43:29;5.70;86.00
49413;DHT22;35493;50.276;9.372;2023-04-08T06:45:56;5.70;85.90
49413;DHT22;35493;50.276;9.372;2023-04-08T06:48:23;5.80;86.10
49413;DHT22;35493;50.276;9.372;2023-04-08T06:50:54;5.80;86.20
49413;DHT22;35493;50.276;9.372;2023-04-08T06:53:21;5.80;85.90
49413;DHT22;35493;50.276;9.372;2023-04-08T06:55:48;5.80;86.10
49413;DHT22;35493;50.276;9.372;2023-04-08T06:58:15;5.80;86.20
49413;DHT22;35493;50.276;9.372;2023-04-08T07:00:42;5.70;86.30
49413;DHT22;35493;50.276;9.372;2023-04-08T07:03:08;5.70;86.30
49413;DHT22;35493;50.276;9.372;2023-04-08T07:05:35;5.80;86.40
49413;DHT22;35493;50.276;9.372;2023-04-08T07:08:04;5.70;86.50
49413;DHT22;35493;50.276;9.372;2023-04-08T07:10:31;5.70;86.60
49413;DHT22;35493;50.276;9.372;2023-04-08T07:12:57;5.70;86.80
49413;DHT22;35493;50.276;9.372;2023-04-08T07:15:24;5.70;86.60
49413;DHT22;35493;50.276;9.372;2023-04-08T07:17:51;5.80;86.40
49413;DHT22;35493;50.276;9.372;2023-04-08T07:20:21;5.90;86.40
49413;DHT22;35493;50.276;9.372;2023-04-08T07:22:48;5.80;86.40
49413;DHT22;35493;50.276;9.372;2023-04-08T07:25:16;5.90;86.50
49413;DHT22;35493;50.276;9.372;2023-04-08T07:27:43;5.90;86.40
49413;DHT22;35493;50.276;9.372;2023-04-08T07:30:10;6.00;86.20
49413;DHT22;35493;50.276;9.372;2023-04-08T07:32:37;6.00;86.30
49413;DHT22;35493;50.276;9.372;2023-04-08T07:35:04;6.00;86.50
49413;DHT22;35493;50.276;9.372;2023-04-08T07:37:31;6.10;86.40
49413;DHT22;35493;50.276;9.372;2023-04-08T07:39:58;6.20;86.00
49413;DHT22;35493;50.276;9.372;2023-04-08T07:42:26;6.20;86.30
49413;DHT22;35493;50.276;9.372;2023-04-08T07:44:53;6.30;86.40
49413;DHT22;35493;50.276;9.372;2023-04-08T07:47:20;6.30;86.20
49413;DHT22;35493;50.276;9.372;2023-04-08T07:49:46;6.30;85.70
49413;DHT22;35493;50.276;9.372;2023-04-08T07:52:13;6.40;86.00
49413;DHT22;35493;50.276;9.372;2023-04-08T07:54:40;6.60;86.00
49413;DHT22;35493;50.276;9.372;2023-04-08T07:57:07;6.60;85.80
49413;DHT22;35493;50.276;9.372;2023-04-08T07:59:35;6.70;85.50
49413;DHT22;35493;50.276;9.372;2023-04-08T08:02:02;6.70;84.80
49413;DHT22;35493;50.276;9.372;2023-04-08T08:04:29;6.70;85.20
49413;DHT22;35493;50.276;9.372;2023-04-08T08:06:57;6.70;85.50
49413;DHT22;35493;50.276;9.372;2023-04-08T08:09:23;6.80;85.30
49413;DHT22;35493;50.276;9.372;2023-04-08T08:11:50;6.90;85.10
49413;DHT22;35493;50.276;9.372;2023-04-08T08:14:17;6.90;85.20
49413;DHT22;35493;50.276;9.372;2023-04-08T08:16:45;6.90;85.30
49413;DHT22;35493;50.276;9.372;2023-04-08T08:19:12;6.90;85.20
49413;DHT22;35493;50.276;9.372;2023-04-08T08:21:39;6.90;84.70
49413;DHT22;35493;50.276;9.372;2023-04-08T08:24:06;6.90;85.10
49413;DHT22;35493;50.276;9.372;2023-04-08T08:26:33;6.90;85.00
49413;DHT22;35493;50.276;9.372;2023-04-08T08:29:00;7.00;85.00
49413;DHT22;35493;50.276;9.372;2023-04-08T08:31:27;7.10;85.00
49413;DHT22;35493;50.276;9.372;2023-04-08T08:33:55;7.10;85.00
49413;DHT22;35493;50.276;9.372;2023-04-08T08:36:21;7.20;85.20
49413;DHT22;35493;50.276;9.372;2023-04-08T08:38:48;7.30;85.00
49413;DHT22;35493;50.276;9.372;2023-04-08T08:41:16;7.40;84.80
49413;DHT22;35493;50.276;9.372;2023-04-08T08:43:42;7.50;84.70
49413;DHT22;35493;50.276;9.372;2023-04-08T08:46:09;7.60;84.60
49413;DHT22;35493;50.276;9.372;2023-04-08T08:48:37;7.70;84.60
49413;DHT22;35493;50.276;9.372;2023-04-08T08:51:08;7.70;83.90
49413;DHT22;35493;50.276;9.372;2023-04-08T08:53:35;7.70;83.80
49413;DHT22;35493;50.276;9.372;2023-04-08T08:56:02;7.90;83.70
49413;DHT22;35493;50.276;9.372;2023-04-08T08:58:29;7.90;83.30
49413;DHT22;35493;50.276;9.372;2023-04-08T09:00:56;8.10;83.20
49413;DHT22;35493;50.276;9.372;2023-04-08T09:03:23;8.20;82.90
49413;DHT22;35493;50.276;9.372;2023-04-08T09:05:52;8.40;82.30
49413;DHT22;35493;50.276;9.372;2023-04-08T09:08:23;8.40;81.90
49413;DHT22;35493;50.276;9.372;2023-04-08T09:10:50;8.60;81.40
49413;DHT22;35493;50.276;9.372;2023-04-08T09:13:17;8.60;80.90
49413;DHT22;35493;50.276;9.372;2023-04-08T09:15:59;8.60;80.80
49413;DHT22;35493;50.276;9.372;2023-04-08T09:18:26;8.70;80.80
49413;DHT22;35493;50.276;9.372;2023-04-08T09:20:53;8.70;80.70
49413;DHT22;35493;50.276;9.372;2023-04-08T09:23:19;8.80;80.50
49413;DHT22;35493;50.276;9.372;2023-04-08T09:25:47;8.90;80.30
49413;DHT22;35493;50.276;9.372;2023-04-08T09:28:18;9.00;79.80
49413;DHT22;35493;50.276;9.372;2023-04-08T09:30:45;9.00;78.90
49413;DHT22;35493;50.276;9.372;2023-04-08T09:33:12;9.00;78.80
49413;DHT22;35493;50.276;9.372;2023-04-08T09:35:38;9.00;78.30
49413;DHT22;35493;50.276;9.372;2023-04-08T09:38:05;9.00;77.90
49413;DHT22;35493;50.276;9.372;2023-04-08T09:40:33;9.10;77.90
49413;DHT22;35493;50.276;9.372;2023-04-08T09:43:01;9.10;77.80
49413;DHT22;35493;50.276;9.372;2023-04-08T09:45:30;9.20;77.70
49413;DHT22;35493;50.276;9.372;2023-04-08T09:48:01;9.20;77.60
49413;DHT22;35493;50.276;9.372;2023-04-08T09:50:30;9.30;77.30
49413;DHT22;35493;50.276;9.372;2023-04-08T09:52:59;9.40;77.20
49413;DHT22;35493;50.276;9.372;2023-04-08T09:55:26;9.40;77.50
49413;DHT22;35493;50.276;9.372;2023-04-08T09:57:57;9.50;77.30
49413;DHT22;35493;50.276;9.372;2023-04-08T10:00:29;9.50;76.80
49413;DHT22;35493;50.276;9.372;2023-04-08T10:02:59;9.50;76.60
49413;DHT22;35493;50.276;9.372;2023-04-08T10:05:27;9.50;76.50
49413;DHT22;35493;50.276;9.372;2023-04-08T10:07:55;9.60;76.60
49413;DHT22;35493;50.276;9.372;2023-04-08T10:10:21;9.50;76.60
49413;DHT22;35493;50.276;9.372;2023-04-08T10:12:49;9.50;75.90
49413;DHT22;35493;50.276;9.372;2023-04-08T10:15:23;9.50;75.70
49413;DHT22;35493;50.276;9.372;2023-04-08T10:17:52;9.50;75.70
49413;DHT22;35493;50.276;9.372;2023-04-08T10:23:04;9.40;74.70
49413;DHT22;35493;50.276;9.372;2023-04-08T10:25:32;9.50;75.10
49413;DHT22;35493;50.276;9.372;2023-04-08T10:27:59;9.50;74.40
49413;DHT22;35493;50.276;9.372;2023-04-08T10:30:37;9.60;74.60
49413;DHT22;35493;50.276;9.372;2023-04-08T10:33:08;9.70;74.30
49413;DHT22;35493;50.276;9.372;2023-04-08T10:35:36;9.80;74.60
49413;DHT22;35493;50.276;9.372;2023-04-08T10:38:06;9.90;74.50
49413;DHT22;35493;50.276;9.372;2023-04-08T10:40:34;10.00;74.40
49413;DHT22;35493;50.276;9.372;2023-04-08T10:43:01;10.10;74.50
49413;DHT22;35493;50.276;9.372;2023-04-08T10:45:29;10.30;74.90
49413;DHT22;35493;50.276;9.372;2023-04-08T10:47:56;10.40;74.60
49413;DHT22;35493;50.276;9.372;2023-04-08T10:50:24;10.50;74.80
49413;DHT22;35493;50.276;9.372;2023-04-08T10:52:51;10.60;74.30
49413;DHT22;35493;50.276;9.372;2023-04-08T10:55:21;10.60;73.90
49413;DHT22;35493;50.276;9.372;2023-04-08T10:57:48;10.60;73.60
49413;DHT22;35493;50.276;9.372;2023-04-08T11:00:16;10.60;73.40
49413;DHT22;35493;50.276;9.372;2023-04-08T11:02:43;10.70;73.40
49413;DHT22;35493;50.276;9.372;2023-04-08T11:05:10;10.60;73.60
49413;DHT22;35493;50.276;9.372;2023-04-08T11:07:40;10.70;73.30
49413;DHT22;35493;50.276;9.372;2023-04-08T11:10:07;10.70;73.30
49413;DHT22;35493;50.276;9.372;2023-04-08T11:12:34;10.80;73.00
49413;DHT22;35493;50.276;9.372;2023-04-08T11:15:01;10.80;73.10
49413;DHT22;35493;50.276;9.372;2023-04-08T11:17:28;10.80;73.50
49413;DHT22;35493;50.276;9.372;2023-04-08T11:19:55;10.90;72.90
49413;DHT22;35493;50.276;9.372;2023-04-08T11:22:27;11.00;72.90
49413;DHT22;35493;50.276;9.372;2023-04-08T11:24:56;11.10;72.90
49413;DHT22;35493;50.276;9.372;2023-04-08T11:27:23;11.20;72.50
49413;DHT22;35493;50.276;9.372;2023-04-08T11:29:51;11.20;72.60
49413;DHT22;35493;50.276;9.372;2023-04-08T11:32:19;11.30;72.70
49413;DHT22;35493;50.276;9.372;2023-04-08T11:34:46;11.40;72.20
49413;DHT22;35493;50.276;9.372;2023-04-08T11:37:13;11.40;72.00
49413;DHT22;35493;50.276;9.372;2023-04-08T11:39:41;11.40;71.70
49413;DHT22;35493;50.276;9.372;2023-04-08T11:42:10;11.60;71.40
49413;DHT22;35493;50.276;9.372;2023-04-08T11:44:51;11.60;71.40
49413;DHT22;35493;50.276;9.372;2023-04-08T11:47:18;11.70;70.90
49413;DHT22;35493;50.276;9.372;2023-04-08T11:49:45;11.70;70.80
49413;DHT22;35493;50.276;9.372;2023-04-08T11:52:12;11.70;70.40
49413;DHT22;35493;50.276;9.372;2023-04-08T11:54:40;11.70;70.30
49413;DHT22;35493;50.276;9.372;2023-04-08T11:57:07;11.80;70.50
49413;DHT22;35493;50.276;9.372;2023-04-08T11:59:36;12.00;70.70
49413;DHT22;35493;50.276;9.372;2023-04-08T12:02:03;12.10;70.30
49413;DHT22;35493;50.276;9.372;2023-04-08T12:04:30;12.20;70.10
49413;DHT22;35493;50.276;9.372;2023-04-08T12:06:58;12.20;69.60
49413;DHT22;35493;50.276;9.372;2023-04-08T12:09:25;12.30;69.50
49413;DHT22;35493;50.276;9.372;2023-04-08T12:11:51;12.30;69.30
49413;DHT22;35493;50.276;9.372;2023-04-08T12:14:18;12.30;69.60
49413;DHT22;35493;50.276;9.372;2023-04-08T12:16:47;12.30;69.40
49413;DHT22;35493;50.276;9.372;2023-04-08T12:19:14;12.20;69.40
49413;DHT22;35493;50.276;9.372;2023-04-08T12:21:41;12.20;69.90
49413;DHT22;35493;50.276;9.372;2023-04-08T12:24:07;12.20;69.50
49413;DHT22;35493;50.276;9.372;2023-04-08T12:26:34;12.10;69.20
49413;DHT22;35493;50.276;9.372;2023-04-08T12:29:01;12.10;69.50
49413;DHT22;35493;50.276;9.372;2023-04-08T12:31:28;12.10;69.40
49413;DHT22;35493;50.276;9.372;2023-04-08T12:33:56;12.10;69.90
49413;DHT22;35493;50.276;9.372;2023-04-08T12:36:22;12.00;69.60
49413;DHT22;35493;50.276;9.372;2023-04-08T12:38:49;12.00;69.60
49413;DHT22;35493;50.276;9.372;2023-04-08T12:41:16;12.00;69.60
49413;DHT22;35493;50.276;9.372;2023-04-08T12:43:43;12.00;69.20
49413;DHT22;35493;50.276;9.372;2023-04-08T12:46:09;12.00;69.20
49413;DHT22;35493;50.276;9.372;2023-04-08T12:48:37;12.00;69.00
49413;DHT22;35493;50.276;9.372;2023-04-08T12:51:05;12.00;68.90
49413;DHT22;35493;50.276;9.372;2023-04-08T12:53:34;11.90;69.10
49413;DHT22;35493;50.276;9.372;2023-04-08T12:56:00;12.00;69.30
49413;DHT22;35493;50.276;9.372;2023-04-08T12:58:27;12.00;69.70
49413;DHT22;35493;50.276;9.372;2023-04-08T13:00:54;12.10;70.00
49413;DHT22;35493;50.276;9.372;2023-04-08T13:03:21;12.10;70.50
49413;DHT22;35493;50.276;9.372;2023-04-08T13:05:47;12.00;70.60
49413;DHT22;35493;50.276;9.372;2023-04-08T13:08:15;12.00;70.80
49413;DHT22;35493;50.276;9.372;2023-04-08T13:10:42;12.10;71.00
49413;DHT22;35493;50.276;9.372;2023-04-08T13:13:09;12.10;70.90
49413;DHT22;35493;50.276;9.372;2023-04-08T13:15:36;12.10;70.80
49413;DHT22;35493;50.276;9.372;2023-04-08T13:18:02;12.10;70.70
49413;DHT22;35493;50.276;9.372;2023-04-08T13:20:30;12.10;70.70
49413;DHT22;35493;50.276;9.372;2023-04-08T13:22:57;12.00;70.60
49413;DHT22;35493;50.276;9.372;2023-04-08T13:25:26;11.90;70.70
49413;DHT22;35493;50.276;9.372;2023-04-08T13:27:53;11.90;71.30
49413;DHT22;35493;50.276;9.372;2023-04-08T13:30:19;11.90;71.80
49413;DHT22;35493;50.276;9.372;2023-04-08T13:32:46;11.90;71.50
49413;DHT22;35493;50.276;9.372;2023-04-08T13:35:13;11.80;71.60
49413;DHT22;35493;50.276;9.372;2023-04-08T13:37:40;11.90;71.90
49413;DHT22;35493;50.276;9.372;2023-04-08T13:40:07;11.90;72.00
49413;DHT22;35493;50.276;9.372;2023-04-08T13:42:35;11.90;72.00
49413;DHT22;35493;50.276;9.372;2023-04-08T13:45:02;12.10;71.60
49413;DHT22;35493;50.276;9.372;2023-04-08T13:47:29;12.20;71.20
49413;DHT22;35493;50.276;9.372;2023-04-08T13:49:56;12.20;71.00
49413;DHT22;35493;50.276;9.372;2023-04-08T13:52:23;12.40;70.90
49413;DHT22;35493;50.276;9.372;2023-04-08T13:54:50;12.40;70.60
49413;DHT22;35493;50.276;9.372;2023-04-08T13:57:17;12.40;70.70
49413;DHT22;35493;50.276;9.372;2023-04-08T13:59:45;12.50;70.70
49413;DHT22;35493;50.276;9.372;2023-04-08T14:02:11;12.50;70.30
49413;DHT22;35493;50.276;9.372;2023-04-08T14:04:38;12.50;69.90
49413;DHT22;35493;50.276;9.372;2023-04-08T14:07:05;12.60;70.00
49413;DHT22;35493;50.276;9.372;2023-04-08T14:09:32;12.50;70.10
49413;DHT22;35493;50.276;9.372;2023-04-08T14:12:00;12.40;70.10
49413;DHT22;35493;50.276;9.372;2023-04-08T14:14:26;12.60;69.80
49413;DHT22;35493;50.276;9.372;2023-04-08T14:16:54;12.50;69.60
49413;DHT22;35493;50.276;9.372;2023-04-08T14:19:21;12.60;69.60
49413;DHT22;35493;50.276;9.372;2023-04-08T14:21:48;12.60;69.90
49413;DHT22;35493;50.276;9.372;2023-04-08T14:24:15;12.50;69.90
49413;DHT22;35493;50.276;9.372;2023-04-08T14:26:42;12.60;70.20
49413;DHT22;35493;50.276;9.372;2023-04-08T14:29:09;12.60;70.20
49413;DHT22;35493;50.276;9.372;2023-04-08T14:31:36;12.70;69.60
49413;DHT22;35493;50.276;9.372;2023-04-08T14:34:04;12.70;69.10
49413;DHT22;35493;50.276;9.372;2023-04-08T14:36:31;12.70;69.30
49413;DHT22;35493;50.276;9.372;2023-04-08T14:38:58;12.80;67.50
49413;DHT22;35493;50.276;9.372;2023-04-08T14:41:25;12.80;67.20
49413;DHT22;35493;50.276;9.372;2023-04-08T14:43:51;12.80;67.00
49413;DHT22;35493;50.276;9.372;2023-04-08T14:46:18;12.70;66.30
49413;DHT22;35493;50.276;9.372;2023-04-08T14:48:45;12.80;66.50
49413;DHT22;35493;50.276;9.372;2023-04-08T14:51:13;12.80;66.10
49413;DHT22;35493;50.276;9.372;2023-04-08T14:53:40;12.70;66.30
49413;DHT22;35493;50.276;9.372;2023-04-08T14:56:07;12.70;66.60
49413;DHT22;35493;50.276;9.372;2023-04-08T14:58:34;12.60;66.50
49413;DHT22;35493;50.276;9.372;2023-04-08T15:01:00;12.50;65.80
49413;DHT22;35493;50.276;9.372;2023-04-08T15:03:27;12.40;66.00
49413;DHT22;35493;50.276;9.372;2023-04-08T15:05:54;12.30;65.40
49413;DHT22;35493;50.276;9.372;2023-04-08T15:08:23;12.20;64.80
49413;DHT22;35493;50.276;9.372;2023-04-08T15:10:50;12.20;64.30
49413;DHT22;35493;50.276;9.372;2023-04-08T15:13:18;12.20;63.40
49413;DHT22;35493;50.276;9.372;2023-04-08T15:15:44;12.30;63.00
49413;DHT22;35493;50.276;9.372;2023-04-08T15:18:11;12.40;62.90
49413;DHT22;35493;50.276;9.372;2023-04-08T15:20:38;12.40;63.50
49413;DHT22;35493;50.276;9.372;2023-04-08T15:23:05;12.50;63.40
49413;DHT22;35493;50.276;9.372;2023-04-08T15:25:34;12.50;63.10
49413;DHT22;35493;50.276;9.372;2023-04-08T15:28:00;12.50;62.90
49413;DHT22;35493;50.276;9.372;2023-04-08T15:30:27;12.50;62.40
49413;DHT22;35493;50.276;9.372;2023-04-08T15:32:59;12.50;62.20
49413;DHT22;35493;50.276;9.372;2023-04-08T15:35:26;12.40;63.00
49413;DHT22;35493;50.276;9.372;2023-04-08T15:37:53;12.40;63.90
49413;DHT22;35493;50.276;9.372;2023-04-08T15:40:20;12.50;63.50
49413;DHT22;35493;50.276;9.372;2023-04-08T15:42:48;12.40;63.70